createdAt,value
2018-12-02T00:00:56.411Z,11.09
2018-12-02T00:03:25.602Z,11.15
2018-12-02T00:05:54.423Z,11.20
2018-12-02T00:08:23.561Z,11.24
2018-12-02T00:10:52.385Z,11.19
2018-12-02T00:13:21.172Z,11.13
2018-12-02T00:15:50.141Z,11.14
2018-12-02T00:18:18.948Z,11.19
2018-12-02T00:20:48.101Z,11.12
2018-12-02T00:23:16.896Z,11.06
2018-12-02T00:25:46.034Z,10.93
2018-12-02T00:28:15.055Z,11.03
2018-12-02T00:30:44.817Z,11.21
2018-12-02T00:33:13.605Z,11.34
2018-12-02T00:35:42.418Z,11.37
2018-12-02T00:38:11.541Z,11.29
2018-12-02T00:40:40.919Z,11.22
2018-12-02T00:43:10.025Z,11.10
2018-12-02T00:45:38.828Z,11.07
2018-12-02T00:48:08.819Z,11.01
2018-12-02T00:50:38.232Z,10.92
2018-12-02T00:53:08.980Z,10.91
2018-12-02T00:55:42.590Z,10.86
2018-12-02T00:58:11.575Z,10.91
2018-12-02T01:00:40.956Z,10.89
2018-12-02T01:03:10.324Z,10.81
2018-12-02T01:05:39.070Z,10.84
2018-12-02T01:08:08.179Z,10.84
2018-12-02T01:10:37.293Z,10.87
2018-12-02T01:13:08.348Z,10.79
2018-12-02T01:15:37.850Z,10.77
2018-12-02T01:18:07.494Z,10.73
2018-12-02T01:20:37.037Z,10.73
2018-12-02T01:23:06.716Z,10.76
2018-12-02T01:25:36.379Z,10.70
2018-12-02T01:28:05.445Z,10.75
2018-12-02T01:30:34.255Z,10.67
2018-12-02T01:33:03.244Z,10.76
2018-12-02T01:35:32.372Z,10.70
2018-12-02T01:38:01.154Z,10.63
2018-12-02T01:40:29.987Z,10.47
2018-12-02T01:42:58.754Z,10.52
2018-12-02T01:45:27.651Z,10.70
2018-12-02T01:47:56.692Z,10.66
2018-12-02T01:50:26.585Z,10.70
2018-12-02T01:52:56.204Z,10.64
2018-12-02T01:55:25.178Z,10.65
2018-12-02T01:57:54.743Z,10.70
2018-12-02T02:00:26.134Z,10.75
2018-12-02T02:02:55.838Z,10.82
2018-12-02T02:05:25.797Z,10.58
2018-12-02T02:07:54.602Z,10.64
2018-12-02T02:10:27.079Z,10.57
2018-12-02T02:12:56.088Z,10.60
2018-12-02T02:15:24.905Z,10.58
2018-12-02T02:17:53.695Z,10.69
2018-12-02T02:20:23.305Z,10.54
2018-12-02T02:22:52.382Z,10.62
2018-12-02T02:25:22.000Z,10.60
2018-12-02T02:27:57.757Z,10.61
2018-12-02T02:30:27.933Z,10.53
2018-12-02T02:32:57.072Z,10.65
2018-12-02T02:35:26.268Z,10.65
2018-12-02T02:37:56.599Z,10.60
2018-12-02T02:40:29.487Z,10.63
2018-12-02T02:42:58.344Z,10.66
2018-12-02T02:45:27.117Z,10.66
2018-12-02T02:47:56.859Z,10.53
2018-12-02T02:50:26.358Z,10.59
2018-12-02T02:52:56.220Z,10.61
2018-12-02T02:55:25.344Z,10.92
2018-12-02T02:57:54.150Z,10.72
2018-12-02T03:00:24.729Z,10.67
2018-12-02T03:02:53.988Z,10.72
2018-12-02T03:05:22.757Z,10.73
2018-12-02T03:07:51.746Z,10.76
2018-12-02T03:10:21.305Z,10.70
2018-12-02T03:12:52.586Z,10.72
2018-12-02T03:15:22.447Z,10.69
2018-12-02T03:17:51.415Z,10.62
2018-12-02T03:20:21.839Z,10.68
2018-12-02T03:22:52.062Z,10.64
2018-12-02T03:25:22.013Z,10.59
2018-12-02T03:27:51.000Z,10.64
2018-12-02T03:30:22.147Z,10.67
2018-12-02T03:32:51.161Z,10.66
2018-12-02T03:35:24.533Z,10.77
2018-12-02T03:37:53.972Z,10.70
2018-12-02T03:40:25.126Z,10.88
2018-12-02T03:42:54.105Z,10.82
2018-12-02T03:45:24.090Z,10.81
2018-12-02T03:47:53.184Z,10.87
2018-12-02T03:50:23.013Z,10.71
2018-12-02T03:52:52.325Z,10.73
2018-12-02T03:55:21.122Z,10.70
2018-12-02T03:57:50.465Z,10.58
2018-12-02T04:00:21.160Z,10.63
2018-12-02T04:02:50.525Z,10.56
2018-12-02T04:05:21.799Z,10.47
2018-12-02T04:07:51.497Z,10.56
2018-12-02T04:10:20.487Z,10.45
2018-12-02T04:12:51.157Z,10.52
2018-12-02T04:15:23.909Z,10.54
2018-12-02T04:17:53.077Z,10.56
2018-12-02T04:20:22.221Z,10.50
2018-12-02T04:22:51.891Z,10.47
2018-12-02T04:25:22.764Z,10.44
2018-12-02T04:27:51.914Z,10.46
2018-12-02T04:30:21.661Z,10.48
2018-12-02T04:32:51.449Z,10.50
2018-12-02T04:35:22.053Z,10.51
2018-12-02T04:37:51.029Z,10.60
2018-12-02T04:40:19.845Z,10.56
2018-12-02T04:42:48.660Z,10.46
2018-12-02T04:45:18.318Z,10.45
2018-12-02T04:47:47.457Z,10.57
2018-12-02T04:50:18.043Z,10.47
2018-12-02T04:52:47.084Z,10.57
2018-12-02T04:55:16.284Z,10.53
2018-12-02T04:57:45.089Z,10.48
2018-12-02T05:00:16.593Z,10.58
2018-12-02T05:02:46.341Z,10.46
2018-12-02T05:05:16.426Z,10.58
2018-12-02T05:07:45.422Z,10.54
2018-12-02T05:10:15.854Z,10.58
2018-12-02T05:12:44.947Z,10.75
2018-12-02T05:15:15.398Z,10.59
2018-12-02T05:17:44.165Z,10.62
2018-12-02T05:20:27.451Z,10.59
2018-12-02T05:22:56.282Z,10.57
2018-12-02T05:25:25.097Z,10.62
2018-12-02T05:27:54.210Z,10.59
2018-12-02T05:30:23.491Z,10.69
2018-12-02T05:32:56.070Z,10.67
2018-12-02T05:35:25.030Z,10.73
2018-12-02T05:37:53.817Z,10.84
2018-12-02T05:40:23.322Z,10.78
2018-12-02T05:42:53.006Z,10.69
2018-12-02T05:45:22.577Z,10.66
2018-12-02T05:47:51.831Z,10.68
2018-12-02T05:50:24.320Z,10.74
2018-12-02T05:52:56.000Z,10.81
2018-12-02T05:55:28.861Z,10.68
2018-12-02T05:57:57.660Z,10.72
2018-12-02T06:00:26.670Z,10.69
2018-12-02T06:02:55.629Z,10.80
2018-12-02T06:05:24.642Z,10.81
2018-12-02T06:07:53.414Z,10.81
2018-12-02T06:10:22.805Z,10.97
2018-12-02T06:12:51.614Z,10.89
2018-12-02T06:15:21.065Z,10.74
2018-12-02T06:17:49.881Z,10.73
2018-12-02T06:20:21.862Z,10.72
2018-12-02T06:22:51.611Z,10.68
2018-12-02T06:25:20.631Z,10.76
2018-12-02T06:27:49.956Z,10.71
2018-12-02T06:30:20.057Z,10.63
2018-12-02T06:32:50.094Z,10.70
2018-12-02T06:35:18.845Z,10.63
2018-12-02T06:37:47.921Z,10.54
2018-12-02T06:40:20.062Z,10.51
2018-12-02T06:42:49.019Z,10.47
2018-12-02T06:45:17.842Z,10.65
2018-12-02T06:47:47.160Z,10.63
2018-12-02T06:50:18.112Z,10.65
2018-12-02T06:52:47.261Z,10.67
2018-12-02T06:55:20.306Z,10.51
2018-12-02T06:57:51.937Z,10.36
2018-12-02T07:01:05.690Z,10.34
2018-12-02T07:03:45.406Z,10.35
2018-12-02T07:06:14.231Z,10.29
2018-12-02T07:08:43.029Z,10.41
2018-12-02T07:11:11.781Z,10.52
2018-12-02T07:13:40.605Z,10.43
2018-12-02T07:16:09.380Z,10.37
2018-12-02T07:18:38.941Z,10.42
2018-12-02T07:21:09.113Z,10.34
2018-12-02T07:23:38.236Z,10.42
2018-12-02T07:26:07.126Z,10.41
2018-12-02T07:28:36.101Z,10.48
2018-12-02T07:31:05.326Z,10.45
2018-12-02T07:33:34.133Z,10.42
2018-12-02T07:36:02.877Z,10.47
2018-12-02T07:38:36.252Z,10.54
2018-12-02T07:41:06.910Z,10.41
2018-12-02T07:43:35.741Z,10.51
2018-12-02T07:46:04.632Z,10.50
2018-12-02T07:48:33.453Z,10.61
2018-12-02T07:51:02.232Z,10.66
2018-12-02T07:53:31.025Z,10.57
2018-12-02T07:55:59.835Z,10.62
2018-12-02T07:58:28.939Z,10.52
2018-12-02T08:00:58.229Z,10.54
2018-12-02T08:03:26.993Z,10.52
2018-12-02T08:05:55.762Z,10.59
2018-12-02T08:08:24.549Z,10.66
2018-12-02T08:10:53.357Z,10.61
2018-12-02T08:13:22.173Z,10.66
2018-12-02T08:15:51.118Z,10.60
2018-12-02T08:18:20.229Z,10.62
2018-12-02T08:20:49.030Z,10.63
2018-12-02T08:23:17.816Z,10.65
2018-12-02T08:25:46.606Z,10.61
2018-12-02T08:28:15.598Z,10.61
2018-12-02T08:30:44.621Z,10.60
2018-12-02T08:33:13.762Z,10.49
2018-12-02T08:35:42.552Z,10.56
2018-12-02T08:38:11.990Z,10.62
2018-12-02T08:40:40.822Z,10.62
2018-12-02T08:43:09.879Z,10.57
2018-12-02T08:45:38.782Z,10.57
2018-12-02T08:48:07.960Z,10.60
2018-12-02T08:50:37.285Z,10.67
2018-12-02T08:53:06.449Z,10.61
2018-12-02T08:55:35.779Z,10.64
2018-12-02T08:58:04.803Z,10.61
2018-12-02T09:00:34.145Z,10.68
2018-12-02T09:03:05.083Z,10.68
2018-12-02T09:05:34.209Z,10.53
2018-12-02T09:08:03.138Z,10.64
2018-12-02T09:10:32.883Z,10.65
2018-12-02T09:13:03.017Z,10.63
2018-12-02T09:15:32.148Z,10.67
2018-12-02T09:18:00.947Z,10.58
2018-12-02T09:20:31.834Z,10.60
2018-12-02T09:23:00.823Z,10.56
2018-12-02T09:25:29.620Z,10.66
2018-12-02T09:27:58.438Z,10.50
2018-12-02T09:30:28.365Z,10.45
2018-12-02T09:32:57.113Z,10.37
2018-12-02T09:35:25.920Z,10.50
2018-12-02T09:37:54.725Z,10.45
2018-12-02T09:40:23.520Z,10.62
2018-12-02T09:42:53.413Z,10.73
2018-12-02T09:45:24.127Z,10.66
2018-12-02T09:47:53.324Z,10.61
2018-12-02T09:50:22.649Z,10.61
2018-12-02T09:52:51.532Z,10.45
2018-12-02T09:55:22.956Z,10.60
2018-12-02T09:57:52.511Z,10.73
2018-12-02T10:00:22.038Z,10.68
2018-12-02T10:02:51.164Z,10.66
2018-12-02T10:05:19.958Z,10.59
2018-12-02T10:07:48.775Z,10.61
2018-12-02T10:10:22.329Z,10.47
2018-12-02T10:12:50.750Z,10.70
2018-12-02T10:15:19.556Z,10.76
2018-12-02T10:17:48.329Z,10.80
2018-12-02T10:20:17.497Z,10.94
2018-12-02T10:22:46.996Z,10.78
2018-12-02T10:25:16.980Z,10.89
2018-12-02T10:27:46.151Z,10.86
2018-12-02T10:30:19.532Z,10.89
2018-12-02T10:32:48.904Z,10.81
2018-12-02T10:35:17.695Z,10.71
2018-12-02T10:37:46.636Z,10.76
2018-12-02T10:40:20.394Z,10.74
2018-12-02T10:42:49.501Z,10.62
2018-12-02T10:45:25.933Z,10.65
2018-12-02T10:47:57.433Z,10.60
2018-12-02T10:50:35.067Z,10.30
2018-12-02T10:53:14.421Z,10.35
2018-12-02T10:55:46.848Z,10.18
2018-12-02T10:58:20.905Z,10.43
2018-12-02T11:00:56.254Z,10.47
2018-12-02T11:03:25.017Z,10.54
2018-12-02T11:05:54.124Z,10.32
2018-12-02T11:08:22.916Z,10.26
2018-12-02T11:10:51.839Z,10.20
2018-12-02T11:13:20.949Z,10.32
2018-12-02T11:15:49.935Z,10.56
2018-12-02T11:18:19.227Z,10.61
2018-12-02T11:20:48.508Z,10.79
2018-12-02T11:23:17.602Z,10.62
2018-12-02T11:25:46.558Z,10.68
2018-12-02T11:28:15.682Z,9.89
2018-12-02T11:30:44.527Z,10.50
2018-12-02T11:33:13.614Z,10.69
2018-12-02T11:35:42.380Z,10.11
2018-12-02T11:38:11.161Z,10.27
2018-12-02T11:40:40.633Z,10.49
2018-12-02T11:43:09.658Z,10.63
2018-12-02T11:45:38.498Z,10.86
2018-12-02T11:48:08.260Z,10.89
2018-12-02T11:50:37.870Z,11.00
2018-12-02T11:53:07.225Z,10.68
2018-12-02T11:55:36.341Z,10.70
2018-12-02T11:58:05.436Z,10.91
2018-12-02T12:00:35.841Z,11.00
2018-12-02T12:03:04.964Z,11.06
2018-12-02T12:05:33.781Z,11.13
2018-12-02T12:08:02.592Z,11.04
2018-12-02T12:10:31.385Z,11.07
2018-12-02T12:13:00.828Z,11.12
2018-12-02T12:15:30.706Z,11.15
2018-12-02T12:17:59.957Z,11.15
2018-12-02T12:20:42.358Z,11.22
2018-12-02T12:23:16.580Z,11.26
2018-12-02T12:25:45.369Z,11.19
2018-12-02T12:28:14.229Z,11.25
2018-12-02T12:30:43.254Z,11.27
2018-12-02T12:33:12.053Z,11.25
2018-12-02T12:35:45.741Z,11.27
2018-12-02T12:38:14.862Z,11.28
2018-12-02T12:40:44.198Z,11.32
2018-12-02T12:43:17.002Z,11.31
2018-12-02T12:45:45.790Z,11.32
2018-12-02T12:48:14.577Z,11.31
2018-12-02T12:50:46.262Z,11.31
2018-12-02T12:53:15.182Z,11.29
2018-12-02T12:55:43.977Z,11.28
2018-12-02T12:58:13.763Z,11.36
2018-12-02T13:00:42.564Z,11.35
2018-12-02T13:03:11.361Z,11.40
2018-12-02T13:05:40.129Z,11.37
2018-12-02T13:08:10.513Z,11.37
2018-12-02T13:10:39.344Z,11.38
2018-12-02T13:13:08.522Z,11.40
2018-12-02T13:15:37.698Z,11.50
2018-12-02T13:18:08.081Z,11.46
2018-12-02T13:20:40.309Z,11.45
2018-12-02T13:23:09.179Z,11.46
2018-12-02T13:25:38.121Z,11.43
2018-12-02T13:28:07.629Z,11.48
2018-12-02T13:30:37.093Z,11.46
2018-12-02T13:33:07.007Z,11.45
2018-12-02T13:35:37.300Z,11.50
2018-12-02T13:38:06.231Z,11.54
2018-12-02T13:40:35.244Z,11.49
2018-12-02T13:43:10.285Z,11.47
2018-12-02T13:45:39.479Z,11.50
2018-12-02T13:48:08.286Z,11.55
2018-12-02T13:50:37.478Z,11.56
2018-12-02T13:53:06.847Z,11.56
2018-12-02T13:55:35.796Z,11.58
2018-12-02T13:58:04.859Z,11.61
2018-12-02T14:00:33.819Z,11.63
2018-12-02T14:03:04.049Z,11.65
2018-12-02T14:05:32.841Z,11.63
2018-12-02T14:08:01.657Z,11.58
2018-12-02T14:10:30.486Z,11.59
2018-12-02T14:13:01.685Z,11.48
2018-12-02T14:15:55.146Z,11.53
2018-12-02T14:18:34.002Z,11.64
2018-12-02T14:21:02.819Z,11.61
2018-12-02T14:23:32.255Z,11.62
2018-12-02T14:26:02.697Z,11.67
2018-12-02T14:30:38.718Z,11.68
2018-12-02T14:33:07.496Z,11.58
2018-12-02T14:35:36.340Z,11.63
2018-12-02T14:38:05.277Z,11.70
2018-12-02T14:40:34.066Z,11.55
2018-12-02T14:43:02.881Z,11.63
2018-12-02T14:45:31.677Z,11.59
2018-12-02T14:48:00.649Z,11.29
2018-12-02T14:50:29.462Z,11.65
2018-12-02T14:52:58.450Z,11.68
2018-12-02T14:55:27.577Z,11.70
2018-12-02T14:57:56.546Z,11.73
2018-12-02T15:00:25.356Z,11.65
2018-12-02T15:02:54.196Z,11.60
2018-12-02T15:05:23.498Z,11.71
2018-12-02T15:07:52.618Z,11.55
2018-12-02T15:10:22.496Z,11.64
2018-12-02T15:12:51.485Z,11.43
2018-12-02T15:15:20.588Z,11.52
2018-12-02T15:17:49.412Z,11.57
2018-12-02T15:20:20.305Z,11.71
2018-12-02T15:22:49.174Z,11.65
2018-12-02T15:25:18.105Z,11.59
2018-12-02T15:27:46.928Z,11.70
2018-12-02T15:30:18.245Z,11.67
2018-12-02T15:32:51.621Z,11.82
2018-12-02T15:35:20.473Z,11.71
2018-12-02T15:37:49.633Z,11.79
2018-12-02T15:40:19.018Z,11.75
2018-12-02T15:42:50.309Z,11.87
2018-12-02T15:45:19.533Z,11.80
2018-12-02T15:47:48.339Z,11.91
2018-12-02T15:50:19.244Z,11.83
2018-12-02T15:52:48.045Z,11.89
2018-12-02T15:55:20.246Z,11.90
2018-12-02T15:57:49.001Z,11.85
2018-12-02T16:00:20.089Z,11.88
2018-12-02T16:02:49.450Z,11.91
2018-12-02T16:05:18.203Z,11.93
2018-12-02T16:07:47.362Z,11.97
2018-12-02T16:10:16.166Z,11.74
2018-12-02T16:12:46.031Z,11.72
2018-12-02T16:15:18.031Z,11.70
2018-12-02T16:17:48.076Z,11.80
2018-12-02T16:20:21.309Z,11.85
2018-12-02T16:22:50.088Z,11.78
2018-12-02T16:25:18.962Z,11.58
2018-12-02T16:27:47.766Z,11.62
2018-12-02T16:30:18.281Z,11.62
2018-12-02T16:32:50.159Z,11.86
2018-12-02T16:35:19.732Z,11.81
2018-12-02T16:37:53.830Z,11.78
2018-12-02T16:40:23.926Z,11.93
2018-12-02T16:42:53.796Z,11.84
2018-12-02T16:45:22.942Z,11.69
2018-12-02T16:47:55.757Z,11.90
2018-12-02T16:50:33.793Z,11.98
2018-12-02T16:53:11.134Z,11.96
2018-12-02T16:55:44.297Z,11.86
2018-12-02T16:58:21.453Z,11.87
2018-12-02T17:00:58.035Z,11.71
2018-12-02T17:03:27.018Z,11.90
2018-12-02T17:05:55.831Z,11.73
2018-12-02T17:08:24.916Z,11.93
2018-12-02T17:10:53.693Z,11.92
2018-12-02T17:13:22.483Z,11.96
2018-12-02T17:15:51.447Z,11.95
2018-12-02T17:18:20.544Z,11.97
2018-12-02T17:20:49.326Z,11.96
2018-12-02T17:23:18.144Z,11.94
2018-12-02T17:25:46.940Z,12.00
2018-12-02T17:28:15.720Z,11.93
2018-12-02T17:30:49.740Z,11.95
2018-12-02T17:33:18.509Z,11.78
2018-12-02T17:35:47.298Z,11.92
2018-12-02T17:38:17.285Z,11.90
2018-12-02T17:40:46.394Z,11.91
2018-12-02T17:43:15.405Z,12.03
2018-12-02T17:45:44.174Z,11.84
2018-12-02T17:48:12.965Z,11.86
2018-12-02T17:50:42.099Z,11.82
2018-12-02T17:53:12.795Z,11.73
2018-12-02T17:55:41.581Z,11.67
2018-12-02T17:58:10.403Z,11.79
2018-12-02T18:00:39.206Z,11.89
2018-12-02T18:03:09.518Z,11.81
2018-12-02T18:05:41.576Z,12.03
2018-12-02T18:08:10.573Z,11.92
2018-12-02T18:10:39.617Z,12.08
2018-12-02T18:13:08.442Z,12.07
2018-12-02T18:15:37.247Z,12.02
2018-12-02T18:18:06.821Z,12.12
2018-12-02T18:20:36.205Z,12.04
2018-12-02T18:23:04.961Z,12.15
2018-12-02T18:25:33.765Z,12.14
2018-12-02T18:28:02.720Z,12.13
2018-12-02T18:30:31.717Z,11.90
2018-12-02T18:33:01.717Z,12.07
2018-12-02T18:35:37.485Z,12.09
2018-12-02T18:38:09.350Z,12.13
2018-12-02T18:40:39.261Z,12.05
2018-12-02T18:43:08.239Z,12.16
2018-12-02T18:45:37.044Z,11.97
2018-12-02T18:48:06.358Z,12.09
2018-12-02T18:50:35.129Z,12.12
2018-12-02T18:53:03.926Z,12.02
2018-12-02T18:55:32.691Z,12.09
2018-12-02T18:58:01.682Z,12.15
2018-12-02T19:00:36.356Z,12.17
2018-12-02T19:03:05.443Z,12.19
2018-12-02T19:05:34.424Z,11.97
2018-12-02T19:08:03.719Z,11.97
2018-12-02T19:10:32.765Z,11.96
2018-12-02T19:13:01.814Z,12.02
2018-12-02T19:15:30.805Z,11.83
2018-12-02T19:17:59.879Z,12.09
2018-12-02T19:20:29.780Z,12.07
2018-12-02T19:23:00.231Z,12.01
2018-12-02T19:25:29.844Z,12.00
2018-12-02T19:27:58.953Z,11.98
2018-12-02T19:30:32.888Z,11.98
2018-12-02T19:32:56.801Z,12.01
2018-12-02T19:35:28.923Z,11.90
2018-12-02T19:38:01.669Z,12.02
2018-12-02T19:40:30.608Z,12.05
2018-12-02T19:42:59.441Z,12.05
2018-12-02T19:45:28.225Z,11.87
2018-12-02T19:47:56.980Z,11.85
2018-12-02T19:50:25.764Z,12.06
2018-12-02T19:52:54.528Z,11.99
2018-12-02T19:55:23.313Z,11.98
2018-12-02T19:57:52.264Z,11.89
2018-12-02T20:00:26.240Z,12.09
2018-12-02T20:02:55.672Z,12.13
2018-12-02T20:05:25.011Z,11.99
2018-12-02T20:07:56.285Z,12.21
2018-12-02T20:10:30.345Z,12.03
2018-12-02T20:13:01.179Z,11.89
2018-12-02T20:15:29.941Z,12.10
2018-12-02T20:17:58.726Z,12.13
2018-12-02T20:20:32.850Z,12.17
2018-12-02T20:23:01.637Z,12.11
2018-12-02T20:25:30.398Z,12.15
2018-12-02T20:28:01.793Z,12.17
2018-12-02T20:30:32.099Z,12.18
2018-12-02T20:33:00.889Z,12.13
2018-12-02T20:35:29.881Z,12.22
2018-12-02T20:37:58.665Z,12.32
2018-12-02T20:40:27.789Z,12.23
2018-12-02T20:42:56.566Z,12.34
2018-12-02T20:45:25.706Z,12.23
2018-12-02T20:47:54.988Z,12.37
2018-12-02T20:50:23.648Z,12.36
2018-12-02T20:52:52.702Z,12.28
2018-12-02T20:55:22.864Z,12.31
2018-12-02T20:57:54.013Z,12.37
2018-12-02T21:00:22.796Z,12.36
2018-12-02T21:02:59.297Z,12.39
2018-12-02T21:05:37.516Z,12.30
2018-12-02T21:08:06.665Z,12.41
2018-12-02T21:10:36.014Z,12.50
2018-12-02T21:13:04.863Z,12.46
2018-12-02T21:15:33.625Z,12.39
2018-12-02T21:18:02.572Z,12.36
2018-12-02T21:20:31.557Z,12.37
2018-12-02T21:23:00.574Z,12.25
2018-12-02T21:25:29.737Z,12.29
2018-12-02T21:27:58.524Z,12.41
2018-12-02T21:30:28.531Z,12.34
2018-12-02T21:32:57.329Z,12.40
2018-12-02T21:35:26.121Z,12.37
2018-12-02T21:37:55.851Z,12.09
2018-12-02T21:40:24.641Z,12.15
2018-12-02T21:42:53.458Z,12.28
2018-12-02T21:45:22.789Z,12.34
2018-12-02T21:47:54.282Z,12.20
2018-12-02T21:50:27.885Z,12.36
2018-12-02T21:52:57.497Z,12.33
2018-12-02T21:55:26.276Z,12.41
2018-12-02T21:57:55.776Z,12.37
2018-12-02T22:00:30.117Z,12.30
2018-12-02T22:02:58.918Z,12.44
2018-12-02T22:05:27.744Z,12.18
2018-12-02T22:07:56.546Z,12.23
2018-12-02T22:10:27.842Z,12.24
2018-12-02T22:12:56.625Z,12.33
2018-12-02T22:15:25.758Z,12.34
2018-12-02T22:17:54.799Z,12.28
2018-12-02T22:20:23.611Z,12.43
2018-12-02T22:22:52.573Z,12.45
2018-12-02T22:25:22.910Z,12.38
2018-12-02T22:27:52.793Z,12.38
2018-12-02T22:30:22.553Z,12.49
2018-12-02T22:32:51.383Z,12.51
2018-12-02T22:35:20.408Z,12.53
2018-12-02T22:37:49.190Z,12.56
2018-12-02T22:40:22.678Z,12.58
2018-12-02T22:42:52.230Z,12.56
2018-12-02T22:45:26.022Z,12.59
2018-12-02T22:47:54.815Z,12.60
2018-12-02T22:50:25.396Z,12.61
2018-12-02T22:52:55.760Z,12.62
2018-12-02T22:55:24.534Z,12.62
2018-12-02T22:57:53.323Z,12.64
2018-12-02T23:00:29.914Z,12.63
2018-12-02T23:03:09.866Z,12.63
2018-12-02T23:05:39.561Z,12.64
2018-12-02T23:08:08.712Z,12.65
2018-12-02T23:10:38.108Z,12.64
2018-12-02T23:13:08.013Z,12.64
2018-12-02T23:15:37.153Z,12.66
2018-12-02T23:18:07.002Z,12.64
2018-12-02T23:20:35.796Z,12.65
2018-12-02T23:23:05.100Z,12.67
2018-12-02T23:25:34.183Z,12.68
2018-12-02T23:28:03.318Z,12.68
2018-12-02T23:30:32.142Z,12.70
2018-12-02T23:33:00.926Z,12.68
2018-12-02T23:35:29.744Z,12.69
2018-12-02T23:37:58.829Z,12.67
2018-12-02T23:40:27.615Z,12.68
2018-12-02T23:42:56.355Z,12.68
2018-12-02T23:45:25.304Z,12.70
2018-12-02T23:47:54.593Z,12.71
2018-12-02T23:50:24.793Z,12.74
2018-12-02T23:52:53.553Z,12.70
2018-12-02T23:55:22.721Z,12.74
2018-12-02T23:57:51.517Z,12.71
